createdAt,value
2018-04-08T00:01:31.034Z,100818.86
2018-04-08T00:03:59.374Z,100807.50
2018-04-08T00:06:27.723Z,100812.05
2018-04-08T00:08:56.070Z,100801.94
2018-04-08T00:11:25.147Z,100799.36
2018-04-08T00:13:53.495Z,100797.88
2018-04-08T00:16:23.164Z,100797.06
2018-04-08T00:18:51.526Z,100788.59
2018-04-08T00:21:19.837Z,100795.38
2018-04-08T00:23:48.195Z,100791.33
2018-04-08T00:26:17.315Z,100787.88
2018-04-08T00:28:46.393Z,100782.07
2018-04-08T00:31:14.724Z,100783.97
2018-04-08T00:33:43.064Z,100773.82
2018-04-08T00:36:12.180Z,100775.75
2018-04-08T00:38:41.277Z,100776.74
2018-04-08T00:41:09.732Z,100763.38
2018-04-08T00:43:38.821Z,100774.02
2018-04-08T00:46:07.161Z,100773.72
2018-04-08T00:48:35.526Z,100766.02
2018-04-08T00:51:04.262Z,100765.53
2018-04-08T00:53:32.592Z,100765.48
2018-04-08T00:56:00.945Z,100768.89
2018-04-08T00:58:29.302Z,100761.94
2018-04-08T01:00:58.422Z,100764.02
2018-04-08T01:03:26.791Z,100761.59
2018-04-08T01:05:55.893Z,100761.30
2018-04-08T01:08:24.249Z,100757.56
2018-04-08T01:10:53.366Z,100755.27
2018-04-08T01:13:21.683Z,100762.34
2018-04-08T01:15:50.040Z,100756.59
2018-04-08T01:18:18.364Z,100757.34
2018-04-08T01:20:46.729Z,100755.59
2018-04-08T01:23:15.809Z,100760.22
2018-04-08T01:25:44.157Z,100756.95
2018-04-08T01:28:12.524Z,100761.38
2018-04-08T01:30:41.622Z,100753.74
2018-04-08T01:33:10.364Z,100751.06
2018-04-08T01:35:38.680Z,100755.49
2018-04-08T01:38:07.800Z,100750.23
2018-04-08T01:40:36.113Z,100752.86
2018-04-08T01:43:04.464Z,100755.75
2018-04-08T01:45:33.215Z,100754.84
2018-04-08T01:48:01.555Z,100761.75
2018-04-08T01:50:29.875Z,100758.00
2018-04-08T01:52:58.217Z,100755.96
2018-04-08T01:55:26.532Z,100752.98
2018-04-08T01:57:54.890Z,100758.88
2018-04-08T02:00:23.985Z,100756.80
2018-04-08T02:02:53.097Z,100754.28
2018-04-08T02:05:21.444Z,100757.91
2018-04-08T02:07:50.545Z,100751.15
2018-04-08T02:10:18.851Z,100752.96
2018-04-08T02:12:47.209Z,100760.11
2018-04-08T02:15:15.925Z,100759.72
2018-04-08T02:17:44.233Z,100758.58
2018-04-08T02:20:12.988Z,100759.50
2018-04-08T02:22:42.084Z,100762.66
2018-04-08T02:25:11.191Z,100768.08
2018-04-08T02:27:39.495Z,100760.27
2018-04-08T02:30:07.832Z,100768.35
2018-04-08T02:32:36.141Z,100768.02
2018-04-08T02:35:04.487Z,100774.24
2018-04-08T02:37:32.840Z,100761.83
2018-04-08T02:40:01.890Z,100757.29
2018-04-08T02:42:30.198Z,100754.59
2018-04-08T02:44:59.298Z,100753.76
2018-04-08T02:47:27.612Z,100759.11
2018-04-08T02:49:55.944Z,100754.77
2018-04-08T02:52:25.077Z,100756.45
2018-04-08T02:54:53.388Z,100757.00
2018-04-08T02:57:22.874Z,100755.31
2018-04-08T02:59:51.205Z,100757.62
2018-04-08T03:02:20.326Z,100759.52
2018-04-08T03:04:48.668Z,100756.98
2018-04-08T03:07:17.021Z,100752.73
2018-04-08T03:09:45.354Z,100747.05
2018-04-08T03:12:14.452Z,100743.92
2018-04-08T03:14:43.186Z,100745.55
2018-04-08T03:17:11.897Z,100741.87
2018-04-08T03:19:41.024Z,100738.47
2018-04-08T03:22:09.340Z,100741.13
2018-04-08T03:24:38.043Z,100742.96
2018-04-08T03:27:06.770Z,100741.20
2018-04-08T03:29:35.073Z,100741.64
2018-04-08T03:32:04.200Z,100745.16
2018-04-08T03:34:32.556Z,100743.44
2018-04-08T03:37:00.932Z,100746.06
2018-04-08T03:39:29.263Z,100741.75
2018-04-08T03:41:58.352Z,100740.85
2018-04-08T03:44:27.475Z,100740.34
2018-04-08T03:46:55.813Z,100739.80
2018-04-08T03:49:24.904Z,100739.27
2018-04-08T03:51:53.250Z,100734.40
2018-04-08T03:54:22.748Z,100732.66
2018-04-08T03:56:51.471Z,100727.27
2018-04-08T03:59:20.580Z,100727.70
2018-04-08T04:01:49.685Z,100732.43
2018-04-08T04:04:18.794Z,100737.38
2018-04-08T04:06:47.108Z,100726.70
2018-04-08T04:09:16.239Z,100726.75
2018-04-08T04:11:45.324Z,100732.91
2018-04-08T04:14:13.668Z,100723.20
2018-04-08T04:16:42.044Z,100728.85
2018-04-08T04:19:27.951Z,100719.26
2018-04-08T04:22:14.464Z,100721.87
2018-04-08T04:25:00.377Z,100720.97
2018-04-08T04:27:29.496Z,100664.91
2018-04-08T04:29:58.227Z,100715.47
2018-04-08T04:32:26.540Z,100719.98
2018-04-08T04:34:55.657Z,100686.33
2018-04-08T04:37:23.994Z,100708.02
2018-04-08T04:39:52.340Z,100705.80
2018-04-08T04:42:21.057Z,100705.79
2018-04-08T04:44:49.504Z,100704.07
2018-04-08T04:47:17.829Z,100702.65
2018-04-08T04:49:46.903Z,100702.70
2018-04-08T04:52:15.257Z,100701.27
2018-04-08T04:54:43.566Z,100703.94
2018-04-08T04:57:12.712Z,100702.53
2018-04-08T04:59:41.796Z,100700.72
2018-04-08T05:02:11.299Z,100697.92
2018-04-08T05:04:39.662Z,100697.93
2018-04-08T05:07:08.044Z,100693.41
2018-04-08T05:09:36.395Z,100692.41
2018-04-08T05:12:05.535Z,100689.53
2018-04-08T05:14:33.884Z,100688.02
2018-04-08T05:17:03.019Z,100691.39
2018-04-08T05:19:31.355Z,100692.16
2018-04-08T05:22:00.439Z,100695.52
2018-04-08T05:24:29.575Z,100689.27
2018-04-08T05:26:57.899Z,100688.22
2018-04-08T05:29:26.290Z,100679.20
2018-04-08T05:31:54.615Z,100676.82
2018-04-08T05:34:23.351Z,100680.32
2018-04-08T05:36:51.720Z,100682.77
2018-04-08T05:39:20.070Z,100683.45
2018-04-08T05:41:48.455Z,100680.11
2018-04-08T05:44:16.771Z,100675.53
2018-04-08T05:46:45.923Z,100672.68
2018-04-08T05:49:14.272Z,100676.09
2018-04-08T05:51:42.596Z,100674.70
2018-04-08T05:54:10.975Z,100678.94
2018-04-08T05:56:40.816Z,100676.11
2018-04-08T05:59:09.944Z,100681.34
2018-04-08T06:01:38.273Z,100685.69
2018-04-08T06:04:07.418Z,100688.59
2018-04-08T06:06:35.747Z,100688.05
2018-04-08T06:09:04.871Z,100688.46
2018-04-08T06:11:33.215Z,100687.53
2018-04-08T06:14:01.540Z,100689.13
2018-04-08T06:16:29.889Z,100688.55
2018-04-08T06:18:58.953Z,100689.31
2018-04-08T06:21:27.414Z,100689.09
2018-04-08T06:23:55.793Z,100692.05
2018-04-08T06:26:24.123Z,100694.00
2018-04-08T06:28:52.476Z,100685.92
2018-04-08T06:31:20.847Z,100691.03
2018-04-08T06:33:49.165Z,100692.31
2018-04-08T06:36:17.484Z,100686.80
2018-04-08T06:38:45.838Z,100691.45
2018-04-08T06:41:15.511Z,100684.45
2018-04-08T06:43:44.650Z,100687.89
2018-04-08T06:46:13.795Z,100684.22
2018-04-08T06:48:42.884Z,100678.91
2018-04-08T06:51:11.207Z,100680.94
2018-04-08T06:53:39.588Z,100682.93
2018-04-08T06:56:07.933Z,100682.84
2018-04-08T06:58:36.694Z,100676.82
2018-04-08T07:01:06.526Z,100676.13
2018-04-08T07:03:35.652Z,100672.79
2018-04-08T07:06:04.003Z,100671.22
2018-04-08T07:08:33.086Z,100670.02
2018-04-08T07:11:01.420Z,100659.19
2018-04-08T07:13:29.780Z,100660.78
2018-04-08T07:15:58.115Z,100658.28
2018-04-08T07:18:26.501Z,100660.23
2018-04-08T07:20:54.810Z,100659.19
2018-04-08T07:23:23.175Z,100649.59
2018-04-08T07:25:52.283Z,100649.32
2018-04-08T07:28:20.631Z,100642.88
2018-04-08T07:30:49.715Z,100652.02
2018-04-08T07:33:18.098Z,100651.23
2018-04-08T07:35:47.214Z,100646.80
2018-04-08T07:38:15.562Z,100645.42
2018-04-08T07:40:44.750Z,100648.20
2018-04-08T07:43:13.094Z,100649.19
2018-04-08T07:45:41.454Z,100649.45
2018-04-08T07:48:09.795Z,100654.14
2018-04-08T07:50:38.918Z,100657.73
2018-04-08T07:53:08.132Z,100656.47
2018-04-08T07:55:36.892Z,100656.14
2018-04-08T07:58:05.622Z,100657.09
2018-04-08T08:00:35.146Z,100645.80
2018-04-08T08:03:03.482Z,100643.18
2018-04-08T08:05:33.203Z,100645.77
2018-04-08T08:08:01.539Z,100644.14
2018-04-08T08:10:30.678Z,100640.12
2018-04-08T08:12:59.064Z,100639.46
2018-04-08T08:15:28.720Z,100647.33
2018-04-08T08:17:57.153Z,100641.88
2018-04-08T08:20:26.234Z,100643.13
2018-04-08T08:22:54.609Z,100638.94
2018-04-08T08:25:22.973Z,100642.55
2018-04-08T08:27:51.304Z,100642.95
2018-04-08T08:30:19.698Z,100643.95
2018-04-08T08:32:48.044Z,100646.69
2018-04-08T08:35:17.190Z,100638.92
2018-04-08T08:37:46.282Z,100642.30
2018-04-08T08:40:15.417Z,100642.66
2018-04-08T08:42:43.734Z,100647.36
2018-04-08T08:45:12.128Z,100647.27
2018-04-08T08:47:41.227Z,100628.55
2018-04-08T08:50:11.089Z,100644.54
2018-04-08T08:52:39.414Z,100640.11
2018-04-08T08:55:08.554Z,100632.32
2018-04-08T08:57:36.934Z,100627.32
2018-04-08T09:00:05.289Z,100631.42
2018-04-08T09:02:33.642Z,100625.73
2018-04-08T09:05:01.974Z,100621.55
2018-04-08T09:07:30.349Z,100624.86
2018-04-08T09:09:58.686Z,100621.81
2018-04-08T09:12:27.803Z,100617.47
2018-04-08T09:14:56.192Z,100606.18
2018-04-08T09:17:24.538Z,100610.81
2018-04-08T09:20:04.241Z,100611.73
2018-04-08T09:22:38.958Z,100601.02
2018-04-08T09:28:11.835Z,100606.69
2018-04-08T09:30:40.204Z,100613.11
2018-04-08T09:33:08.509Z,100592.98
2018-04-08T09:35:36.837Z,100594.66
2018-04-08T09:38:05.965Z,100598.34
2018-04-08T09:40:35.084Z,100593.11
2018-04-08T09:43:03.458Z,100600.84
2018-04-08T09:45:31.822Z,100594.95
2018-04-08T09:48:00.178Z,100586.86
2018-04-08T09:50:28.492Z,100585.08
2018-04-08T09:52:56.857Z,100581.48
2018-04-08T09:55:25.254Z,100576.16
2018-04-08T09:57:56.506Z,100580.37
2018-04-08T10:00:28.153Z,100578.81
2018-04-08T10:02:57.327Z,100566.16
2018-04-08T10:05:26.484Z,100561.71
2018-04-08T10:07:55.485Z,100570.72
2018-04-08T10:10:24.226Z,100562.11
2018-04-08T10:12:52.586Z,100563.59
2018-04-08T10:15:21.689Z,100562.36
2018-04-08T10:17:50.079Z,100549.13
2018-04-08T10:20:19.173Z,100545.53
2018-04-08T10:22:47.534Z,100544.45
2018-04-08T10:25:16.298Z,100536.00
2018-04-08T10:27:47.445Z,100539.95
2018-04-08T10:30:16.623Z,100545.41
2018-04-08T10:32:45.797Z,100534.81
2018-04-08T10:35:14.916Z,100524.42
2018-04-08T10:37:44.065Z,100526.42
2018-04-08T10:40:12.413Z,100524.23
2018-04-08T10:42:40.725Z,100515.41
2018-04-08T10:45:09.529Z,100509.41
2018-04-08T10:47:37.893Z,100512.16
2018-04-08T10:50:07.017Z,100514.09
2018-04-08T10:52:35.444Z,100499.42
2018-04-08T10:55:03.931Z,100504.87
2018-04-08T10:57:32.281Z,100495.81
2018-04-08T11:00:01.483Z,100491.47
2018-04-08T11:02:29.862Z,100491.12
2018-04-08T11:04:58.494Z,100478.86
2018-04-08T11:07:26.880Z,100487.26
2018-04-08T11:09:55.209Z,100481.41
2018-04-08T11:12:24.379Z,100477.30
2018-04-08T11:14:52.753Z,100483.00
2018-04-08T11:17:21.094Z,100472.62
2018-04-08T11:19:49.486Z,100467.97
2018-04-08T11:22:17.858Z,100471.69
2018-04-08T11:24:46.563Z,100457.61
2018-04-08T11:27:14.917Z,100445.39
2018-04-08T11:29:43.285Z,100442.77
2018-04-08T11:32:11.655Z,100449.91
2018-04-08T11:34:40.000Z,100444.70
2018-04-08T11:37:08.326Z,100448.84
2018-04-08T11:39:36.705Z,100445.39
2018-04-08T11:42:05.057Z,100441.05
2018-04-08T11:44:33.536Z,100439.91
2018-04-08T11:47:05.460Z,100438.23
2018-04-08T11:49:34.432Z,100435.54
2018-04-08T11:52:06.064Z,100422.73
2018-04-08T11:54:34.531Z,100433.67
2018-04-08T11:57:02.972Z,100429.03
2018-04-08T11:59:32.124Z,100421.77
2018-04-08T12:02:01.354Z,100423.45
2018-04-08T12:04:29.731Z,100427.75
2018-04-08T12:07:00.236Z,100421.09
2018-04-08T12:09:31.527Z,100430.87
2018-04-08T12:12:02.917Z,100431.37
2018-04-08T12:14:33.492Z,100424.77
2018-04-08T12:17:04.437Z,100425.23
2018-04-08T12:19:33.711Z,100432.12
2018-04-08T12:22:03.588Z,100424.56
2018-04-08T12:24:35.017Z,100420.20
2018-04-08T12:27:21.096Z,100417.95
2018-04-08T12:29:55.340Z,100415.97
2018-04-08T12:32:25.915Z,100420.20
2018-04-08T12:34:59.002Z,100407.91
2018-04-08T12:37:27.596Z,100401.75
2018-04-08T12:39:56.592Z,100403.89
2018-04-08T12:42:25.876Z,100399.55
2018-04-08T12:45:11.974Z,100403.89
2018-04-08T12:47:47.466Z,100401.77
2018-04-08T12:50:15.900Z,100395.29
2018-04-08T12:52:47.417Z,100383.36
2018-04-08T12:55:16.634Z,100385.97
2018-04-08T12:57:45.904Z,100377.59
2018-04-08T13:00:16.224Z,100376.92
2018-04-08T13:02:46.892Z,100369.08
2018-04-08T13:05:16.575Z,100366.30
2018-04-08T13:07:45.980Z,100356.95
2018-04-08T13:10:14.419Z,100355.17
2018-04-08T13:12:42.968Z,100347.48
2018-04-08T13:15:15.028Z,100345.23
2018-04-08T13:17:43.536Z,100345.95
2018-04-08T13:20:22.861Z,100346.67
2018-04-08T13:22:51.738Z,100337.67
2018-04-08T13:25:21.264Z,100329.09
2018-04-08T13:27:51.212Z,100321.52
2018-04-08T13:30:20.376Z,100319.52
2018-04-08T13:32:49.598Z,100318.61
2018-04-08T13:35:17.958Z,100310.49
2018-04-08T13:37:47.037Z,100312.19
2018-04-08T13:40:15.427Z,100314.07
2018-04-08T13:42:44.973Z,100313.88
2018-04-08T13:45:14.087Z,100305.82
2018-04-08T13:47:42.429Z,100308.77
2018-04-08T13:50:10.766Z,100315.33
2018-04-08T13:52:39.135Z,100311.72
2018-04-08T13:55:07.488Z,100320.30
2018-04-08T13:57:35.857Z,100316.30
2018-04-08T14:00:04.631Z,100313.71
2018-04-08T14:02:32.970Z,100312.91
2018-04-08T14:05:01.335Z,100322.14
2018-04-08T14:07:29.675Z,100325.61
2018-04-08T14:09:58.067Z,100319.80
2018-04-08T14:12:28.702Z,100320.84
2018-04-08T14:14:59.415Z,100316.11
2018-04-08T14:17:28.859Z,100308.94
2018-04-08T14:19:58.685Z,100308.20
2018-04-08T14:22:28.560Z,100309.23
2018-04-08T14:24:57.474Z,100305.11
2018-04-08T14:27:25.981Z,100301.77
2018-04-08T14:29:55.149Z,100305.34
2018-04-08T14:32:23.582Z,100306.14
2018-04-08T14:34:52.082Z,100315.67
2018-04-08T14:37:20.863Z,100314.78
2018-04-08T14:39:50.012Z,100315.06
2018-04-08T14:42:19.135Z,100309.80
2018-04-08T14:44:48.465Z,100312.33
2018-04-08T14:47:16.807Z,100305.96
2018-04-08T14:49:45.412Z,100306.48
2018-04-08T14:52:13.761Z,100317.23
2018-04-08T14:54:42.875Z,100302.59
2018-04-08T14:57:13.449Z,100298.70
2018-04-08T14:59:42.734Z,100286.89
2018-04-08T15:02:11.242Z,100279.06
2018-04-08T15:04:43.371Z,100292.56
2018-04-08T15:07:14.495Z,100284.42
2018-04-08T15:09:45.722Z,100273.56
2018-04-08T15:12:19.469Z,100264.05
2018-04-08T15:14:51.098Z,100276.41
2018-04-08T15:17:20.558Z,100274.23
2018-04-08T15:20:07.975Z,100281.41
2018-04-08T15:22:38.143Z,100279.86
2018-04-08T15:25:06.605Z,100282.31
2018-04-08T15:27:37.090Z,100284.61
2018-04-08T15:30:06.073Z,100280.52
2018-04-08T15:32:34.490Z,100277.55
2018-04-08T15:35:06.334Z,100284.72
2018-04-08T15:37:43.142Z,100268.84
2018-04-08T15:40:33.381Z,100270.61
2018-04-08T15:43:02.658Z,100266.39
2018-04-08T15:45:32.262Z,100268.44
2018-04-08T15:48:06.764Z,100267.27
2018-04-08T15:50:37.089Z,100270.30
2018-04-08T15:53:05.446Z,100258.30
2018-04-08T15:55:34.578Z,100267.09
2018-04-08T15:58:03.710Z,100259.19
2018-04-08T16:00:32.052Z,100261.98
2018-04-08T16:03:00.462Z,100261.54
2018-04-08T16:05:29.912Z,100253.91
2018-04-08T16:07:58.706Z,100253.08
2018-04-08T16:10:33.657Z,100240.10
2018-04-08T16:13:02.942Z,100232.26
2018-04-08T16:15:32.082Z,100227.07
2018-04-08T16:18:01.207Z,100223.28
2018-04-08T16:20:30.146Z,100219.14
2018-04-08T16:22:58.927Z,100220.59
2018-04-08T16:25:28.042Z,100221.23
2018-04-08T16:27:57.178Z,100218.39
2018-04-08T16:30:25.963Z,100224.36
2018-04-08T16:32:54.303Z,100226.73
2018-04-08T16:35:22.674Z,100230.14
2018-04-08T16:37:51.813Z,100233.15
2018-04-08T16:40:20.184Z,100229.03
2018-04-08T16:42:49.645Z,100225.28
2018-04-08T16:45:19.099Z,100226.05
2018-04-08T16:47:48.266Z,100227.07
2018-04-08T16:50:17.361Z,100229.02
2018-04-08T16:52:46.490Z,100225.52
2018-04-08T16:55:15.636Z,100215.77
2018-04-08T16:57:44.776Z,100204.72
2018-04-08T17:00:13.136Z,100201.80
2018-04-08T17:02:42.663Z,100199.78
2018-04-08T17:05:12.150Z,100201.17
2018-04-08T17:07:40.515Z,100199.59
2018-04-08T17:10:11.409Z,100189.59
2018-04-08T17:12:40.520Z,100186.69
2018-04-08T17:15:09.622Z,100186.20
2018-04-08T17:17:38.005Z,100185.39
2018-04-08T17:20:06.383Z,100194.88
2018-04-08T17:22:34.730Z,100197.55
2018-04-08T17:25:03.882Z,100196.41
2018-04-08T17:27:32.298Z,100199.78
2018-04-08T17:30:01.410Z,100190.65
2018-04-08T17:32:29.791Z,100201.72
2018-04-08T17:34:58.581Z,100198.36
2018-04-08T17:37:27.342Z,100202.73
2018-04-08T17:39:56.432Z,100203.14
2018-04-08T17:42:25.255Z,100202.84
2018-04-08T17:44:54.430Z,100193.82
2018-04-08T17:47:23.152Z,100197.31
2018-04-08T17:49:51.483Z,100198.81
2018-04-08T17:52:20.609Z,100191.57
2018-04-08T17:54:48.988Z,100193.92
2018-04-08T17:57:17.741Z,100199.24
2018-04-08T18:02:21.309Z,100208.09
2018-04-08T18:04:49.681Z,100210.95
2018-04-08T18:07:19.006Z,100210.06
2018-04-08T18:09:47.361Z,100213.64
2018-04-08T18:12:15.797Z,100201.84
2018-04-08T18:14:45.620Z,100209.56
2018-04-08T18:17:14.050Z,100216.76
2018-04-08T18:19:42.641Z,100213.31
2018-04-08T18:22:11.057Z,100208.08
2018-04-08T18:24:40.484Z,100210.54
2018-04-08T18:27:08.825Z,100206.02
2018-04-08T18:29:37.736Z,100205.47
2018-04-08T18:32:06.554Z,100199.10
2018-04-08T18:34:34.890Z,100201.00
2018-04-08T18:37:04.024Z,100198.78
2018-04-08T18:39:33.757Z,100203.25
2018-04-08T18:42:03.292Z,100205.78
2018-04-08T18:44:33.133Z,100217.81
2018-04-08T18:47:01.552Z,100217.01
2018-04-08T18:49:29.918Z,100223.59
2018-04-08T18:51:59.011Z,100221.53
2018-04-08T18:54:28.286Z,100223.94
2018-04-08T18:56:57.679Z,100217.28
2018-04-08T18:59:27.216Z,100214.78
2018-04-08T19:01:56.094Z,100210.60
2018-04-08T19:04:24.813Z,100209.50
2018-04-08T19:06:53.553Z,100207.45
2018-04-08T19:09:22.311Z,100203.80
2018-04-08T19:11:51.715Z,100209.94
2018-04-08T19:14:21.109Z,100202.70
2018-04-08T19:16:50.201Z,100201.74
2018-04-08T19:19:18.556Z,100204.64
2018-04-08T19:21:46.886Z,100205.38
2018-04-08T19:24:15.423Z,100203.84
2018-04-08T19:26:44.589Z,100204.25
2018-04-08T19:29:12.955Z,100195.45
2018-04-08T19:31:41.409Z,100192.41
2018-04-08T19:34:10.522Z,100197.53
2018-04-08T19:36:39.825Z,100196.22
2018-04-08T19:39:08.933Z,100192.48
2018-04-08T19:41:37.275Z,100194.69
2018-04-08T19:44:07.038Z,100195.63
2018-04-08T19:46:35.381Z,100198.55
2018-04-08T19:49:03.777Z,100195.92
2018-04-08T19:51:32.142Z,100185.44
2018-04-08T19:54:01.261Z,100177.36
2018-04-08T19:56:29.653Z,100181.67
2018-04-08T19:58:57.981Z,100173.86
2018-04-08T20:01:27.460Z,100177.59
2018-04-08T20:03:56.626Z,100173.82
2018-04-08T20:06:26.487Z,100173.20
2018-04-08T20:08:56.091Z,100177.87
2018-04-08T20:11:24.417Z,100172.20
2018-04-08T20:13:52.778Z,100166.70
2018-04-08T20:16:21.143Z,100162.59
2018-04-08T20:18:50.247Z,100152.02
2018-04-08T20:21:19.441Z,100156.36
2018-04-08T20:23:47.789Z,100161.34
2018-04-08T20:26:16.174Z,100149.86
2018-04-08T20:28:44.553Z,100153.23
2018-04-08T20:31:12.916Z,100144.41
2018-04-08T20:33:42.801Z,100148.78
2018-04-08T20:36:11.145Z,100146.36
2018-04-08T20:38:39.505Z,100148.87
2018-04-08T20:41:08.602Z,100152.06
2018-04-08T20:43:37.761Z,100151.84
2018-04-08T20:46:06.484Z,100155.22
2018-04-08T20:48:35.572Z,100155.01
2018-04-08T20:51:04.717Z,100151.22
2018-04-08T20:53:33.031Z,100150.27
2018-04-08T20:56:01.381Z,100158.85
2018-04-08T20:58:29.740Z,100160.84
2018-04-08T21:00:58.101Z,100162.42
2018-04-08T21:03:26.493Z,100168.48
2018-04-08T21:05:55.593Z,100170.74
2018-04-08T21:08:24.686Z,100169.51
2018-04-08T21:10:53.802Z,100167.31
2018-04-08T21:13:22.157Z,100169.70
2018-04-08T21:15:50.474Z,100166.16
2018-04-08T21:18:18.840Z,100162.16
2018-04-08T21:20:47.228Z,100165.45
2018-04-08T21:23:16.964Z,100159.02
2018-04-08T21:25:46.070Z,100159.56
2018-04-08T21:28:15.203Z,100156.48
2018-04-08T21:30:43.576Z,100160.39
2018-04-08T21:33:11.923Z,100157.66
2018-04-08T21:35:41.052Z,100166.33
2018-04-08T21:38:09.385Z,100166.37
2018-04-08T21:40:38.507Z,100165.19
2018-04-08T21:43:06.866Z,100160.59
2018-04-08T21:45:35.946Z,100156.45
2018-04-08T21:48:04.281Z,100159.69
2018-04-08T21:50:32.639Z,100155.29
2018-04-08T21:53:00.958Z,100155.56
2018-04-08T21:55:30.095Z,100164.57
2018-04-08T21:57:59.232Z,100164.18
2018-04-08T22:00:27.542Z,100161.55
2018-04-08T22:02:55.892Z,100165.59
2018-04-08T22:05:24.234Z,100166.78
2018-04-08T22:07:52.580Z,100174.80
2018-04-08T22:10:20.925Z,100170.85
2018-04-08T22:12:49.270Z,100173.50
2018-04-08T22:15:17.593Z,100169.61
2018-04-08T22:17:45.956Z,100161.44
2018-04-08T22:20:14.276Z,100167.34
2018-04-08T22:22:43.376Z,100162.72
2018-04-08T22:25:11.731Z,100166.96
2018-04-08T22:27:40.447Z,100161.88
2018-04-08T22:30:09.163Z,100161.47
2018-04-08T22:32:38.666Z,100154.85
2018-04-08T22:35:06.978Z,100155.06
2018-04-08T22:37:35.318Z,100162.34
2018-04-08T22:40:03.652Z,100169.78
2018-04-08T22:42:32.412Z,100170.52
2018-04-08T22:45:01.490Z,100161.52
2018-04-08T22:47:30.237Z,100163.55
2018-04-08T22:49:59.314Z,100164.94
2018-04-08T22:52:28.427Z,100167.48
2018-04-08T22:54:56.788Z,100162.83
2018-04-08T22:57:25.884Z,100159.06
2018-04-08T22:59:54.236Z,100163.50
2018-04-08T23:02:22.575Z,100165.34
2018-04-08T23:04:50.889Z,100163.61
2018-04-08T23:07:19.237Z,100165.41
2018-04-08T23:09:47.614Z,100153.20
2018-04-08T23:12:16.722Z,100155.52
2018-04-08T23:14:45.039Z,100159.14
2018-04-08T23:17:13.397Z,100152.21
2018-04-08T23:19:41.737Z,100142.62
2018-04-08T23:22:10.088Z,100147.91
2018-04-08T23:24:39.192Z,100146.64
2018-04-08T23:27:07.540Z,100152.40
2018-04-08T23:29:35.853Z,100145.03
2018-04-08T23:32:04.211Z,100144.25
2018-04-08T23:34:33.328Z,100144.36
2018-04-08T23:37:02.427Z,100143.95
2018-04-08T23:39:30.854Z,100128.58
2018-04-08T23:41:59.571Z,100131.61
2018-04-08T23:44:28.671Z,100127.69
2018-04-08T23:46:57.778Z,100127.81
2018-04-08T23:49:26.099Z,100113.89
2018-04-08T23:51:54.835Z,100110.36
2018-04-08T23:54:23.559Z,100107.77
2018-04-08T23:56:51.909Z,100104.70
2018-04-08T23:59:20.268Z,100108.52
